Time;durP1;ratioP1;P1;durP2;ratioP2;P2;SDS_P1;SDS_P2;PMS_P1;PMS_P2;Temp;Humidity;BMP_temperature;BMP_pressure;BME280_temperature;BME280_humidity;BME280_pressure;Samples;Min_cycle;Max_cycle;Signal;HPM_P1;HPM_P2
2023/07/06 00:02:03;;;;;;;;;;;26.30;57.80;;;;;;5092928;28;19924;-57
2023/07/06 00:04:30;;;;;;;;;;;26.30;57.80;;;;;;5093337;28;19931;-57
2023/07/06 00:06:57;;;;;;;;;;;26.30;57.80;;;;;;5092921;28;19924;-57
2023/07/06 00:09:24;;;;;;;;;;;26.20;57.70;;;;;;5092954;28;20015;-57
2023/07/06 00:11:51;;;;;;;;;;;26.20;57.70;;;;;;5093303;28;19969;-57
2023/07/06 00:14:18;;;;;;;;;;;26.30;57.80;;;;;;5095070;28;19950;-57
2023/07/06 00:16:47;;;;;;;;;;;26.30;57.90;;;;;;5097039;28;19923;-58
2023/07/06 00:19:19;;;;;;;;;;;26.20;57.80;;;;;;5096513;28;20284;-57
2023/07/06 00:21:49;;;;;;;;;;;26.30;57.90;;;;;;5096872;28;20352;-58
2023/07/06 00:24:17;;;;;;;;;;;26.30;57.90;;;;;;5096110;28;19932;-57
2023/07/06 00:26:44;;;;;;;;;;;26.20;57.80;;;;;;5096670;28;20364;-57
2023/07/06 00:29:11;;;;;;;;;;;26.20;57.80;;;;;;5095725;28;19977;-57
2023/07/06 00:31:51;;;;;;;;;;;26.20;57.80;;;;;;5096640;28;20349;-57
2023/07/06 00:34:19;;;;;;;;;;;26.20;57.90;;;;;;5096225;28;20407;-57
2023/07/06 00:36:47;;;;;;;;;;;26.20;57.90;;;;;;5096124;28;19928;-57
2023/07/06 00:39:15;;;;;;;;;;;26.20;57.90;;;;;;5095720;28;20388;-57
2023/07/06 00:41:43;;;;;;;;;;;26.20;57.90;;;;;;5096433;28;20492;-57
2023/07/06 00:44:30;;;;;;;;;;;26.20;57.90;;;;;;5095769;28;19928;-57
2023/07/06 00:46:58;;;;;;;;;;;26.20;57.90;;;;;;5096228;28;19928;-57
2023/07/06 00:49:25;;;;;;;;;;;26.20;57.90;;;;;;5096206;28;19924;-57
2023/07/06 00:51:52;;;;;;;;;;;26.20;57.90;;;;;;5096270;28;20356;-57
2023/07/06 00:54:19;;;;;;;;;;;26.20;57.90;;;;;;5096208;28;19974;-57
2023/07/06 00:56:52;;;;;;;;;;;26.20;57.90;;;;;;5095878;28;19925;-57
2023/07/06 00:59:20;;;;;;;;;;;26.20;57.90;;;;;;5095617;28;19924;-57
2023/07/06 01:01:47;;;;;;;;;;;26.20;57.90;;;;;;5096050;28;19927;-57
2023/07/06 01:04:16;;;;;;;;;;;26.20;57.90;;;;;;5095912;28;19924;-57
2023/07/06 01:06:47;;;;;;;;;;;26.20;57.90;;;;;;5095558;28;19924;-57
2023/07/06 01:09:15;;;;;;;;;;;26.20;57.90;;;;;;5095447;28;19924;-57
2023/07/06 01:11:43;;;;;;;;;;;26.20;57.90;;;;;;5095087;28;19924;-57
2023/07/06 01:14:13;;;;;;;;;;;26.20;57.90;;;;;;5095311;28;19997;-57
2023/07/06 01:16:45;;;;;;;;;;;26.20;57.90;;;;;;5095452;28;19959;-57
2023/07/06 01:19:32;;;;;;;;;;;26.20;57.80;;;;;;5093948;28;20277;-57
2023/07/06 01:22:22;;;;;;;;;;;26.20;57.80;;;;;;5095298;28;19923;-57
2023/07/06 01:25:03;;;;;;;;;;;26.20;57.80;;;;;;5095150;28;19928;-57
2023/07/06 01:27:43;;;;;;;;;;;26.20;57.80;;;;;;5095358;28;19978;-57
2023/07/06 01:30:19;;;;;;;;;;;26.20;57.80;;;;;;5094944;28;19932;-57
2023/07/06 01:32:48;;;;;;;;;;;26.20;57.80;;;;;;5094734;28;19977;-57
2023/07/06 01:35:23;;;;;;;;;;;26.20;57.80;;;;;;5094765;28;19930;-57
2023/07/06 01:37:51;;;;;;;;;;;26.20;57.80;;;;;;5094988;28;19924;-57
2023/07/06 01:40:18;;;;;;;;;;;26.20;57.80;;;;;;5094918;28;20403;-57
2023/07/06 01:42:45;;;;;;;;;;;26.20;57.80;;;;;;5094800;28;19924;-60
2023/07/06 01:45:20;;;;;;;;;;;26.20;57.80;;;;;;5094883;28;19924;-57
2023/07/06 01:47:49;;;;;;;;;;;26.20;57.80;;;;;;5094466;28;20380;-57
2023/07/06 01:50:18;;;;;;;;;;;26.20;57.80;;;;;;5094223;28;19930;-57
2023/07/06 01:52:59;;;;;;;;;;;26.20;57.80;;;;;;5094208;28;19924;-57
2023/07/06 01:55:28;;;;;;;;;;;26.10;57.70;;;;;;5094742;28;20347;-57
2023/07/06 01:58:15;;;;;;;;;;;26.10;57.70;;;;;;5094314;28;19950;-57
2023/07/06 02:00:47;;;;;;;;;;;26.20;57.80;;;;;;5092709;28;20383;-59
2023/07/06 02:03:15;;;;;;;;;;;26.10;57.80;;;;;;5094659;28;20045;-59
2023/07/06 02:05:43;;;;;;;;;;;26.10;57.80;;;;;;5094001;28;19971;-60
2023/07/06 02:08:11;;;;;;;;;;;26.10;57.80;;;;;;5094894;28;19999;-57
2023/07/06 02:10:38;;;;;;;;;;;26.10;57.80;;;;;;5094193;28;19924;-57
2023/07/06 02:13:06;;;;;;;;;;;26.10;57.80;;;;;;5083680;28;19924;-58
2023/07/06 02:15:33;;;;;;;;;;;26.10;57.80;;;;;;5077458;28;19924;-57
2023/07/06 02:18:02;;;;;;;;;;;26.10;57.70;;;;;;5093928;28;19932;-57
2023/07/06 02:20:29;;;;;;;;;;;26.10;57.80;;;;;;5093925;28;19924;-57
2023/07/06 02:22:56;;;;;;;;;;;26.10;57.70;;;;;;5093986;28;19977;-57
2023/07/06 02:25:23;;;;;;;;;;;26.10;57.70;;;;;;5093731;28;20026;-57
2023/07/06 02:27:50;;;;;;;;;;;26.10;57.70;;;;;;5093726;28;19928;-57
2023/07/06 02:30:17;;;;;;;;;;;26.10;57.70;;;;;;5094000;28;19971;-57
2023/07/06 02:32:46;;;;;;;;;;;26.10;57.80;;;;;;5093687;28;19977;-57
2023/07/06 02:35:13;;;;;;;;;;;26.10;57.80;;;;;;5093658;28;19928;-57
2023/07/06 02:37:40;;;;;;;;;;;26.10;57.70;;;;;;5092540;28;19978;-57
2023/07/06 02:40:10;;;;;;;;;;;26.10;57.70;;;;;;5093788;28;19977;-57
2023/07/06 02:42:41;;;;;;;;;;;26.10;57.70;;;;;;5093033;28;19924;-57
2023/07/06 02:45:09;;;;;;;;;;;26.10;57.70;;;;;;5093445;28;19967;-57
2023/07/06 02:47:36;;;;;;;;;;;26.10;57.70;;;;;;5093238;28;19924;-57
2023/07/06 02:50:04;;;;;;;;;;;26.00;57.60;;;;;;5093520;28;19924;-57
2023/07/06 02:52:31;;;;;;;;;;;26.10;57.60;;;;;;5093747;28;20041;-57
2023/07/06 02:54:58;;;;;;;;;;;26.00;57.60;;;;;;5093634;28;19924;-57
2023/07/06 02:57:26;;;;;;;;;;;26.00;57.60;;;;;;5093680;28;19924;-57
2023/07/06 02:59:56;;;;;;;;;;;26.10;57.60;;;;;;5094039;28;19924;-57
2023/07/06 03:02:23;;;;;;;;;;;26.10;57.60;;;;;;5093082;28;20013;-57
2023/07/06 03:04:53;;;;;;;;;;;26.00;57.50;;;;;;5093043;28;19924;-57
2023/07/06 03:07:20;;;;;;;;;;;26.10;57.60;;;;;;5092695;28;20300;-57
2023/07/06 03:09:47;;;;;;;;;;;26.00;57.50;;;;;;5092870;28;19924;-57
2023/07/06 03:12:14;;;;;;;;;;;26.10;57.60;;;;;;5092846;28;19924;-58
2023/07/06 03:14:42;;;;;;;;;;;26.00;57.60;;;;;;5093422;28;19928;-57
2023/07/06 03:17:09;;;;;;;;;;;26.00;57.50;;;;;;5093649;28;20369;-57
2023/07/06 03:19:38;;;;;;;;;;;26.00;57.50;;;;;;5092850;28;20350;-57
2023/07/06 03:22:05;;;;;;;;;;;26.10;57.60;;;;;;5093409;28;19928;-57
2023/07/06 03:24:32;;;;;;;;;;;26.10;57.50;;;;;;5092459;28;19924;-57
2023/07/06 03:27:01;;;;;;;;;;;26.10;57.50;;;;;;5093395;28;19928;-57
2023/07/06 03:29:30;;;;;;;;;;;26.10;57.50;;;;;;5093812;28;19935;-57
2023/07/06 03:31:57;;;;;;;;;;;26.10;57.50;;;;;;5092728;28;19978;-57
2023/07/06 03:34:24;;;;;;;;;;;26.10;57.40;;;;;;5092847;28;20401;-57
2023/07/06 03:36:52;;;;;;;;;;;26.10;57.40;;;;;;5098813;28;19928;-57
2023/07/06 03:39:18;;;;;;;;;;;26.10;57.40;;;;;;5100036;28;19924;-57
2023/07/06 03:41:46;;;;;;;;;;;26.10;57.30;;;;;;5092936;28;19974;-57
2023/07/06 03:44:14;;;;;;;;;;;26.10;57.30;;;;;;5092551;28;19931;-57
2023/07/06 03:46:41;;;;;;;;;;;26.10;57.30;;;;;;5092711;28;19924;-57
2023/07/06 03:49:10;;;;;;;;;;;26.10;57.30;;;;;;5094679;28;20384;-57
2023/07/06 03:51:37;;;;;;;;;;;26.10;57.20;;;;;;5096708;28;19927;-57
2023/07/06 03:54:06;;;;;;;;;;;26.10;57.20;;;;;;5096418;28;19924;-57
2023/07/06 03:56:33;;;;;;;;;;;26.10;57.20;;;;;;5096674;28;19924;-57
2023/07/06 03:59:01;;;;;;;;;;;26.10;57.10;;;;;;5094674;28;19924;-57
2023/07/06 04:01:29;;;;;;;;;;;26.20;57.10;;;;;;5084378;28;19931;-57
2023/07/06 04:03:57;;;;;;;;;;;26.20;57.60;;;;;;5091329;28;20299;-57
2023/07/06 04:06:25;;;;;;;;;;;26.10;56.90;;;;;;5095708;28;19924;-57
2023/07/06 04:08:53;;;;;;;;;;;26.10;56.90;;;;;;5096161;28;19928;-57
2023/07/06 04:11:20;;;;;;;;;;;26.20;57.00;;;;;;5095020;28;19969;-57
2023/07/06 04:13:47;;;;;;;;;;;26.20;57.00;;;;;;5094182;28;19975;-57
2023/07/06 04:16:16;;;;;;;;;;;26.20;57.00;;;;;;5087523;28;19928;-57
2023/07/06 04:18:47;;;;;;;;;;;26.20;56.90;;;;;;5086715;28;19924;-57
2023/07/06 04:21:15;;;;;;;;;;;26.20;56.80;;;;;;5075910;28;19963;-57
2023/07/06 04:23:42;;;;;;;;;;;26.30;56.90;;;;;;5094341;28;19932;-57
2023/07/06 04:26:10;;;;;;;;;;;26.20;56.70;;;;;;5089822;28;19928;-57
2023/07/06 04:28:40;;;;;;;;;;;26.30;56.80;;;;;;5075049;28;19932;-57
2023/07/06 04:31:08;;;;;;;;;;;26.30;56.70;;;;;;5086474;28;19924;-57
2023/07/06 04:33:35;;;;;;;;;;;26.30;56.60;;;;;;5083448;28;20296;-58
2023/07/06 04:36:02;;;;;;;;;;;26.30;56.60;;;;;;5085145;28;20309;-57
2023/07/06 04:38:30;;;;;;;;;;;26.30;56.60;;;;;;5092878;28;19970;-57
2023/07/06 04:40:57;;;;;;;;;;;26.20;56.50;;;;;;5111518;28;19969;-57
2023/07/06 04:43:26;;;;;;;;;;;26.20;56.50;;;;;;5111325;28;19932;-57
2023/07/06 04:45:57;;;;;;;;;;;26.00;56.50;;;;;;5089058;28;19950;-57
2023/07/06 04:48:26;;;;;;;;;;;25.80;56.30;;;;;;5095731;28;19998;-57
2023/07/06 04:50:53;;;;;;;;;;;25.60;55.20;;;;;;5095793;28;20010;-57
2023/07/06 04:53:21;;;;;;;;;;;25.20;54.20;;;;;;5095432;28;19939;-57
2023/07/06 04:55:50;;;;;;;;;;;24.90;53.70;;;;;;5093485;28;19924;-57
2023/07/06 04:58:18;;;;;;;;;;;24.70;53.30;;;;;;5075699;28;19931;-57
2023/07/06 05:00:46;;;;;;;;;;;24.30;52.90;;;;;;5089847;28;20399;-58
2023/07/06 05:03:13;;;;;;;;;;;24.00;52.30;;;;;;5092182;28;20370;-58
2023/07/06 05:05:42;;;;;;;;;;;23.60;52.60;;;;;;5077009;28;19924;-58
2023/07/06 05:08:10;;;;;;;;;;;23.30;52.80;;;;;;5076713;28;19963;-58
2023/07/06 05:10:38;;;;;;;;;;;23.00;52.80;;;;;;5080356;28;20321;-58
2023/07/06 05:13:05;;;;;;;;;;;22.60;52.90;;;;;;5079608;28;19924;-58
2023/07/06 05:15:33;;;;;;;;;;;22.40;53.20;;;;;;5074419;28;20935;-59
2023/07/06 05:18:01;;;;;;;;;;;22.10;53.10;;;;;;5074561;28;19925;-64
2023/07/06 05:20:30;;;;;;;;;;;21.90;53.80;;;;;;5087229;28;20364;-62
2023/07/06 05:22:58;;;;;;;;;;;21.60;54.60;;;;;;5087111;28;19925;-63
2023/07/06 05:25:27;;;;;;;;;;;21.40;54.40;;;;;;5077506;28;20023;-63
2023/07/06 05:27:54;;;;;;;;;;;21.20;54.70;;;;;;5073734;28;20019;-64
2023/07/06 05:30:21;;;;;;;;;;;21.00;56.70;;;;;;5077399;28;19955;-61
2023/07/06 05:32:49;;;;;;;;;;;20.90;56.10;;;;;;5068673;28;19929;-61
2023/07/06 05:35:16;;;;;;;;;;;20.80;56.90;;;;;;5073559;28;19979;-61
2023/07/06 05:37:44;;;;;;;;;;;20.80;57.30;;;;;;5076946;28;19928;-61
2023/07/06 05:40:11;;;;;;;;;;;20.70;57.20;;;;;;5074896;28;20393;-61
2023/07/06 05:42:38;;;;;;;;;;;20.60;58.60;;;;;;5072635;28;19938;-61
2023/07/06 05:45:06;;;;;;;;;;;20.60;58.40;;;;;;5076678;28;19974;-61
2023/07/06 05:47:33;;;;;;;;;;;20.60;59.40;;;;;;5074883;28;19932;-61
2023/07/06 05:50:01;;;;;;;;;;;20.60;59.40;;;;;;5076659;28;19940;-60
2023/07/06 05:52:28;;;;;;;;;;;20.60;59.40;;;;;;5079354;28;19931;-61
2023/07/06 05:54:55;;;;;;;;;;;20.60;59.80;;;;;;5075896;28;20357;-64
2023/07/06 05:57:22;;;;;;;;;;;20.60;60.00;;;;;;5076253;28;20380;-61
2023/07/06 05:59:50;;;;;;;;;;;20.60;60.10;;;;;;5079938;28;19924;-61
2023/07/06 06:02:23;;;;;;;;;;;20.60;59.80;;;;;;5078730;28;19928;-63
2023/07/06 06:04:51;;;;;;;;;;;20.60;59.70;;;;;;5068200;28;19972;-61
2023/07/06 06:07:19;;;;;;;;;;;20.60;59.80;;;;;;5075608;28;19924;-62
2023/07/06 06:09:47;;;;;;;;;;;20.60;59.70;;;;;;5072987;28;19955;-63
2023/07/06 06:12:18;;;;;;;;;;;20.70;59.70;;;;;;5069876;28;19925;-62
2023/07/06 06:14:50;;;;;;;;;;;20.70;59.50;;;;;;5074280;28;19928;-64
2023/07/06 06:17:18;;;;;;;;;;;20.70;59.20;;;;;;5073068;28;20380;-63
2023/07/06 06:19:46;;;;;;;;;;;20.70;58.90;;;;;;5075300;28;19963;-62
2023/07/06 06:22:14;;;;;;;;;;;20.70;59.10;;;;;;5075537;28;19935;-64
2023/07/06 06:24:42;;;;;;;;;;;20.60;59.20;;;;;;5079288;28;19945;-63
2023/07/06 06:27:10;;;;;;;;;;;20.60;59.10;;;;;;5073659;28;20019;-63
2023/07/06 06:29:39;;;;;;;;;;;20.60;59.30;;;;;;5083518;28;19928;-62
2023/07/06 06:32:06;;;;;;;;;;;20.50;59.10;;;;;;5073444;28;19928;-62
2023/07/06 06:34:35;;;;;;;;;;;20.50;59.00;;;;;;5074480;28;19963;-63
2023/07/06 06:37:04;;;;;;;;;;;20.50;58.10;;;;;;5072753;28;19924;-63
2023/07/06 06:39:31;;;;;;;;;;;20.40;58.60;;;;;;5074594;28;20356;-60
2023/07/06 06:42:00;;;;;;;;;;;20.30;58.30;;;;;;5080365;28;19977;-60
2023/07/06 06:44:29;;;;;;;;;;;20.30;58.50;;;;;;5072681;28;19929;-62
2023/07/06 06:47:01;;;;;;;;;;;20.20;58.50;;;;;;5081141;28;19929;-62
2023/07/06 06:49:33;;;;;;;;;;;20.20;58.50;;;;;;5075880;28;19925;-61
2023/07/06 06:52:03;;;;;;;;;;;20.10;59.00;;;;;;5073139;28;20368;-59
2023/07/06 06:54:32;;;;;;;;;;;20.00;59.40;;;;;;5075560;28;19951;-59
2023/07/06 06:56:59;;;;;;;;;;;20.00;59.20;;;;;;5078873;28;19932;-59
2023/07/06 06:59:27;;;;;;;;;;;20.10;59.40;;;;;;5078371;28;19924;-59
2023/07/06 07:01:54;;;;;;;;;;;20.10;59.30;;;;;;5069203;28;20321;-60
2023/07/06 07:04:22;;;;;;;;;;;20.10;59.50;;;;;;5074298;28;19932;-61
2023/07/06 07:06:49;;;;;;;;;;;20.10;59.60;;;;;;5074464;28;19929;-57
2023/07/06 07:09:17;;;;;;;;;;;20.10;59.50;;;;;;5078902;28;20003;-57
2023/07/06 07:11:45;;;;;;;;;;;20.10;59.80;;;;;;5079198;28;19936;-58
2023/07/06 07:14:15;;;;;;;;;;;20.20;60.00;;;;;;5069689;28;20432;-58
2023/07/06 07:16:43;;;;;;;;;;;20.20;59.80;;;;;;5075159;28;19929;-59
2023/07/06 07:19:10;;;;;;;;;;;20.20;60.50;;;;;;5081746;28;20023;-60
2023/07/06 07:21:37;;;;;;;;;;;20.20;60.70;;;;;;5072657;28;20001;-59
2023/07/06 07:24:04;;;;;;;;;;;20.30;60.70;;;;;;5079193;28;19932;-61
2023/07/06 07:26:31;;;;;;;;;;;20.30;60.10;;;;;;5082591;28;20343;-57
2023/07/06 07:28:59;;;;;;;;;;;20.40;60.40;;;;;;5084434;28;19985;-59
2023/07/06 07:31:26;;;;;;;;;;;20.40;60.50;;;;;;5077709;28;20241;-59
2023/07/06 07:33:54;;;;;;;;;;;20.40;60.10;;;;;;5080110;28;20017;-58
2023/07/06 07:36:21;;;;;;;;;;;20.50;60.60;;;;;;5079563;28;19929;-59
2023/07/06 07:38:49;;;;;;;;;;;20.50;60.50;;;;;;5078001;28;20396;-60
2023/07/06 07:41:22;;;;;;;;;;;20.60;60.00;;;;;;5078977;28;19932;-58
2023/07/06 07:43:49;;;;;;;;;;;20.60;60.00;;;;;;5076003;28;19925;-57
2023/07/06 07:46:18;;;;;;;;;;;20.60;59.90;;;;;;5078692;28;19935;-59
2023/07/06 07:48:46;;;;;;;;;;;20.60;59.80;;;;;;5076498;28;19932;-61
2023/07/06 07:51:15;;;;;;;;;;;20.60;59.50;;;;;;5075164;28;19934;-59
2023/07/06 07:53:44;;;;;;;;;;;20.60;59.70;;;;;;5078067;28;20388;-59
2023/07/06 07:56:15;;;;;;;;;;;20.70;59.70;;;;;;5082892;28;19966;-62
2023/07/06 07:58:46;;;;;;;;;;;20.70;59.80;;;;;;5082853;28;19931;-59
2023/07/06 08:01:15;;;;;;;;;;;20.70;59.40;;;;;;5081842;28;19928;-60
2023/07/06 08:03:43;;;;;;;;;;;20.70;59.40;;;;;;5075473;28;19928;-60
2023/07/06 08:06:11;;;;;;;;;;;20.70;59.40;;;;;;5078814;28;20466;-60
2023/07/06 08:08:38;;;;;;;;;;;20.70;59.70;;;;;;5082699;28;19924;-60
2023/07/06 08:11:06;;;;;;;;;;;20.70;59.20;;;;;;5082784;28;19924;-56
2023/07/06 08:13:35;;;;;;;;;;;20.70;59.40;;;;;;5080132;28;19975;-59
2023/07/06 08:16:03;;;;;;;;;;;20.70;59.20;;;;;;5079282;28;19931;-60
2023/07/06 08:18:31;;;;;;;;;;;20.70;59.60;;;;;;5079391;28;19971;-60
2023/07/06 08:20:59;;;;;;;;;;;20.60;59.80;;;;;;5081189;28;19928;-60
2023/07/06 08:23:47;;;;;;;;;;;20.60;60.00;;;;;;5083675;28;20457;-58
2023/07/06 08:26:15;;;;;;;;;;;20.60;60.20;;;;;;5078858;28;19924;-60
2023/07/06 08:28:46;;;;;;;;;;;20.70;60.40;;;;;;5077867;28;19968;-60
2023/07/06 08:31:14;;;;;;;;;;;20.70;60.20;;;;;;5075839;28;19936;-56
2023/07/06 08:33:44;;;;;;;;;;;20.80;60.30;;;;;;5076365;28;20023;-59
2023/07/06 08:36:11;;;;;;;;;;;20.80;60.10;;;;;;5076825;28;19925;-57
2023/07/06 08:38:38;;;;;;;;;;;20.90;60.40;;;;;;5079109;28;19928;-58
2023/07/06 08:41:10;;;;;;;;;;;20.90;60.10;;;;;;5080011;28;20392;-60
2023/07/06 08:43:39;;;;;;;;;;;21.00;60.00;;;;;;5077049;28;20372;-59
2023/07/06 08:46:06;;;;;;;;;;;21.00;59.90;;;;;;5070579;28;20433;-57
2023/07/06 08:48:36;;;;;;;;;;;21.00;59.90;;;;;;5073486;28;19939;-57
2023/07/06 08:51:19;;;;;;;;;;;21.10;59.90;;;;;;5075279;28;20015;-58
2023/07/06 08:53:57;;;;;;;;;;;21.20;59.80;;;;;;5076477;28;19935;-58
2023/07/06 08:56:26;;;;;;;;;;;21.30;59.70;;;;;;5075944;28;20307;-58
2023/07/06 08:58:54;;;;;;;;;;;21.30;59.50;;;;;;5075643;28;20402;-57
2023/07/06 09:01:22;;;;;;;;;;;21.30;59.40;;;;;;5072277;28;20389;-58
2023/07/06 09:04:00;;;;;;;;;;;21.30;59.30;;;;;;5077255;28;19924;-59
2023/07/06 09:06:28;;;;;;;;;;;21.30;59.40;;;;;;5082101;28;20384;-60
2023/07/06 09:09:03;;;;;;;;;;;21.30;59.30;;;;;;5077942;28;19924;-58
2023/07/06 09:11:31;;;;;;;;;;;21.30;59.40;;;;;;5074869;28;19925;-58
2023/07/06 09:14:02;;;;;;;;;;;21.30;59.20;;;;;;5078074;28;19970;-57
2023/07/06 09:16:33;;;;;;;;;;;21.40;59.20;;;;;;5072735;28;19924;-58
2023/07/06 09:19:06;;;;;;;;;;;21.40;59.30;;;;;;5075979;28;19999;-58
2023/07/06 09:21:33;;;;;;;;;;;21.40;59.20;;;;;;5074236;28;19931;-58
2023/07/06 09:24:00;;;;;;;;;;;21.40;59.00;;;;;;5078254;28;19928;-60
2023/07/06 09:26:29;;;;;;;;;;;21.40;58.80;;;;;;5076560;28;19970;-59
2023/07/06 09:29:19;;;;;;;;;;;21.50;58.80;;;;;;5080360;28;20391;-58
2023/07/06 09:31:47;;;;;;;;;;;21.50;58.70;;;;;;5076742;28;19982;-58
2023/07/06 09:34:26;;;;;;;;;;;21.50;58.70;;;;;;5078962;28;19932;-60
2023/07/06 09:36:53;;;;;;;;;;;21.50;58.60;;;;;;5076671;28;19981;-60
2023/07/06 09:39:20;;;;;;;;;;;21.50;58.50;;;;;;5073600;28;20460;-59
2023/07/06 09:41:47;;;;;;;;;;;21.50;58.60;;;;;;5080312;28;19928;-60
2023/07/06 09:44:25;;;;;;;;;;;21.50;58.70;;;;;;5078070;28;20065;-59
2023/07/06 09:46:55;;;;;;;;;;;21.50;58.60;;;;;;5077435;28;19970;-56
2023/07/06 09:49:26;;;;;;;;;;;21.50;59.10;;;;;;5079718;28;20411;-58
2023/07/06 09:52:00;;;;;;;;;;;21.50;58.60;;;;;;5075760;28;19928;-59
2023/07/06 09:54:35;;;;;;;;;;;21.50;59.00;;;;;;5074817;28;19926;-57
2023/07/06 09:57:09;;;;;;;;;;;21.60;59.10;;;;;;5080241;28;20327;-56
2023/07/06 09:59:38;;;;;;;;;;;21.60;58.70;;;;;;5072427;28;19936;-56
2023/07/06 10:02:24;;;;;;;;;;;21.60;58.40;;;;;;5066826;28;19982;-58
2023/07/06 10:05:10;;;;;;;;;;;21.70;58.30;;;;;;5071143;28;19928;-58
2023/07/06 10:07:44;;;;;;;;;;;21.70;58.00;;;;;;5075966;28;20351;-57
2023/07/06 10:10:22;;;;;;;;;;;21.70;57.70;;;;;;5076226;28;19951;-57
2023/07/06 10:13:00;;;;;;;;;;;21.70;57.60;;;;;;5075412;28;19928;-55
2023/07/06 10:15:50;;;;;;;;;;;21.60;57.20;;;;;;5076301;28;19932;-56
2023/07/06 10:18:21;;;;;;;;;;;21.60;57.20;;;;;;5076128;28;20377;-58
2023/07/06 10:20:53;;;;;;;;;;;21.60;56.80;;;;;;5074641;28;19924;-58
2023/07/06 10:23:32;;;;;;;;;;;21.60;56.60;;;;;;5074300;28;20395;-58
2023/07/06 10:26:08;;;;;;;;;;;21.50;56.30;;;;;;5075263;28;20006;-56
2023/07/06 10:28:38;;;;;;;;;;;21.50;56.10;;;;;;5077439;28;19954;-56
2023/07/06 10:31:07;;;;;;;;;;;21.40;56.40;;;;;;5076442;28;20557;-58
2023/07/06 10:33:54;;;;;;;;;;;21.40;56.40;;;;;;5076602;28;19928;-56
2023/07/06 10:36:23;;;;;;;;;;;21.40;56.30;;;;;;5074355;28;19932;-57
2023/07/06 10:38:50;;;;;;;;;;;21.30;56.50;;;;;;5077259;28;20438;-57
2023/07/06 10:41:21;;;;;;;;;;;21.30;56.30;;;;;;5072152;28;19932;-54
2023/07/06 10:43:49;;;;;;;;;;;21.20;56.30;;;;;;5073153;28;20078;-56
2023/07/06 10:46:31;;;;;;;;;;;21.20;56.40;;;;;;5074687;28;19933;-55
2023/07/06 10:49:19;;;;;;;;;;;21.20;56.80;;;;;;5071892;28;19931;-58
2023/07/06 10:51:50;;;;;;;;;;;21.20;57.00;;;;;;5074019;28;19954;-57
2023/07/06 10:54:22;;;;;;;;;;;21.20;57.20;;;;;;5074380;28;19935;-57
2023/07/06 10:57:05;;;;;;;;;;;21.20;57.30;;;;;;5076427;28;20075;-57
2023/07/06 10:59:36;;;;;;;;;;;21.20;57.40;;;;;;5071866;28;20145;-60
2023/07/06 11:02:23;;;;;;;;;;;21.20;57.70;;;;;;5075314;28;20296;-59
2023/07/06 11:05:07;;;;;;;;;;;21.10;57.80;;;;;;5074817;28;20381;-60
2023/07/06 11:07:50;;;;;;;;;;;21.10;58.00;;;;;;5073697;28;20356;-61
2023/07/06 11:10:27;;;;;;;;;;;21.20;58.10;;;;;;5069004;28;20186;-60
2023/07/06 11:12:57;;;;;;;;;;;21.20;57.80;;;;;;5075440;28;19924;-60
2023/07/06 11:15:30;;;;;;;;;;;21.20;57.90;;;;;;5073551;28;19963;-60
2023/07/06 11:18:03;;;;;;;;;;;21.20;57.80;;;;;;5073974;28;20288;-60
2023/07/06 11:20:30;;;;;;;;;;;21.30;57.80;;;;;;5075172;28;20358;-59
2023/07/06 11:23:01;;;;;;;;;;;21.30;57.60;;;;;;5071388;28;20013;-55
2023/07/06 11:25:29;;;;;;;;;;;21.30;57.40;;;;;;5072880;28;19924;-60
2023/07/06 11:28:04;;;;;;;;;;;21.20;57.20;;;;;;5077775;28;19997;-58
2023/07/06 11:30:51;;;;;;;;;;;21.20;57.10;;;;;;5074765;28;19928;-61
2023/07/06 11:33:27;;;;;;;;;;;21.20;57.10;;;;;;5079592;28;20031;-59
2023/07/06 11:36:15;;;;;;;;;;;21.20;57.10;;;;;;5073826;28;20014;-60
2023/07/06 11:39:05;;;;;;;;;;;21.10;57.20;;;;;;5072669;28;19925;-61
2023/07/06 11:41:40;;;;;;;;;;;21.10;56.90;;;;;;5075194;28;20298;-61
2023/07/06 11:44:19;;;;;;;;;;;21.00;56.60;;;;;;5076153;28;19964;-62
2023/07/06 11:46:58;;;;;;;;;;;21.00;56.90;;;;;;5073416;28;19935;-60
2023/07/06 11:49:34;;;;;;;;;;;21.00;56.50;;;;;;5074417;28;20667;-61
2023/07/06 11:52:05;;;;;;;;;;;21.00;56.40;;;;;;5078166;28;19932;-62
2023/07/06 11:54:51;;;;;;;;;;;20.90;56.40;;;;;;5073440;28;19964;-61
2023/07/06 11:57:29;;;;;;;;;;;20.90;56.50;;;;;;5072966;28;19924;-64
2023/07/06 12:00:33;;;;;;;;;;;20.80;56.50;;;;;;5076572;28;21927;-60
2023/07/06 12:02:59;;;;;;;;;;;20.80;56.80;;;;;;5071087;28;20300;-61
2023/07/06 12:05:33;;;;;;;;;;;20.80;56.50;;;;;;5076397;28;20287;-61
2023/07/06 12:08:02;;;;;;;;;;;20.80;56.50;;;;;;5079878;28;20288;-60
2023/07/06 12:10:30;;;;;;;;;;;20.70;56.40;;;;;;5075266;28;20283;-60
2023/07/06 12:12:57;;;;;;;;;;;20.70;56.50;;;;;;5076683;28;20445;-61
2023/07/06 12:15:24;;;;;;;;;;;20.80;56.50;;;;;;5072682;28;19981;-61
2023/07/06 12:17:55;;;;;;;;;;;20.80;56.60;;;;;;5080493;28;19925;-61
2023/07/06 12:20:25;;;;;;;;;;;20.90;56.50;;;;;;5078250;28;19925;-62
2023/07/06 12:22:53;;;;;;;;;;;20.90;56.60;;;;;;5079089;28;19982;-62
2023/07/06 12:25:23;;;;;;;;;;;20.90;56.90;;;;;;5080085;28;19924;-61
2023/07/06 12:27:55;;;;;;;;;;;20.90;56.40;;;;;;5080529;28;19950;-60
2023/07/06 12:30:22;;;;;;;;;;;20.90;56.80;;;;;;5079210;28;20568;-60
2023/07/06 12:32:50;;;;;;;;;;;21.00;56.90;;;;;;5075979;28;20022;-61
2023/07/06 12:35:17;;;;;;;;;;;21.00;57.00;;;;;;5077091;28;19939;-60
2023/07/06 12:37:44;;;;;;;;;;;21.00;56.80;;;;;;5081469;28;20323;-62
2023/07/06 12:40:18;;;;;;;;;;;21.10;57.20;;;;;;5071469;28;19959;-61
2023/07/06 12:42:45;;;;;;;;;;;21.10;57.10;;;;;;5079338;28;19935;-61
2023/07/06 12:45:14;;;;;;;;;;;21.20;56.80;;;;;;5078002;28;19971;-61
2023/07/06 12:47:42;;;;;;;;;;;21.20;57.00;;;;;;5081272;28;19963;-60
2023/07/06 12:50:14;;;;;;;;;;;21.20;56.90;;;;;;5078996;28;19928;-60
2023/07/06 12:52:42;;;;;;;;;;;21.20;56.90;;;;;;5065484;28;19931;-60
2023/07/06 12:55:14;;;;;;;;;;;21.20;57.20;;;;;;5076078;28;19928;-60
2023/07/06 12:57:43;;;;;;;;;;;21.30;57.20;;;;;;5074800;28;19932;-61
2023/07/06 13:00:15;;;;;;;;;;;21.30;57.20;;;;;;5071565;28;19925;-61
2023/07/06 13:02:42;;;;;;;;;;;21.30;57.30;;;;;;5076439;28;19932;-61
2023/07/06 13:05:17;;;;;;;;;;;21.40;57.20;;;;;;5077665;28;20457;-60
2023/07/06 13:07:50;;;;;;;;;;;21.40;56.80;;;;;;5086176;28;19960;-60
2023/07/06 13:10:25;;;;;;;;;;;21.40;56.70;;;;;;5075622;28;19927;-61
2023/07/06 13:12:54;;;;;;;;;;;21.50;57.00;;;;;;5072713;28;20034;-61
2023/07/06 13:15:23;;;;;;;;;;;21.50;56.40;;;;;;5076835;28;19924;-62
2023/07/06 13:17:52;;;;;;;;;;;21.50;56.40;;;;;;5078923;28;19932;-62
2023/07/06 13:20:20;;;;;;;;;;;21.60;56.40;;;;;;5081781;28;20380;-62
2023/07/06 13:22:47;;;;;;;;;;;21.60;56.40;;;;;;5080991;28;19932;-62
2023/07/06 13:25:17;;;;;;;;;;;21.60;56.30;;;;;;5078630;28;19963;-61
2023/07/06 13:27:48;;;;;;;;;;;21.70;56.20;;;;;;5078859;28;19951;-61
2023/07/06 13:30:21;;;;;;;;;;;21.70;56.10;;;;;;5084209;28;19983;-61
2023/07/06 13:32:48;;;;;;;;;;;21.70;56.00;;;;;;5081771;28;19928;-61
2023/07/06 13:35:16;;;;;;;;;;;21.70;56.00;;;;;;5078295;28;20023;-62
2023/07/06 13:37:46;;;;;;;;;;;21.70;56.00;;;;;;5079384;28;19931;-63
2023/07/06 13:40:15;;;;;;;;;;;21.80;56.60;;;;;;5094023;28;19954;-61
2023/07/06 13:42:43;;;;;;;;;;;21.80;56.10;;;;;;5085398;28;21536;-64
2023/07/06 13:45:13;;;;;;;;;;;21.80;56.20;;;;;;5077570;28;19931;-61
2023/07/06 13:47:40;;;;;;;;;;;21.70;56.30;;;;;;5081107;28;19932;-61
2023/07/06 13:50:08;;;;;;;;;;;21.80;56.30;;;;;;5085153;28;19937;-61
2023/07/06 13:52:35;;;;;;;;;;;21.80;56.40;;;;;;5081906;28;19936;-63
2023/07/06 13:55:02;;;;;;;;;;;21.80;56.20;;;;;;5082699;28;19933;-63
2023/07/06 13:57:30;;;;;;;;;;;21.80;56.20;;;;;;5079333;28;19977;-61
2023/07/06 14:00:00;;;;;;;;;;;21.80;56.20;;;;;;5076303;28;20279;-61
2023/07/06 14:02:28;;;;;;;;;;;21.90;56.10;;;;;;5075718;28;19985;-61
2023/07/06 14:04:55;;;;;;;;;;;22.00;59.60;;;;;;5089964;28;19966;-62
2023/07/06 14:07:22;;;;;;;;;;;22.10;61.70;;;;;;5082063;28;19928;-61
2023/07/06 14:09:49;;;;;;;;;;;22.40;63.00;;;;;;5078929;28;19978;-62
2023/07/06 14:12:19;;;;;;;;;;;22.70;63.50;;;;;;5078087;28;19932;-60
2023/07/06 14:14:46;;;;;;;;;;;22.90;63.60;;;;;;5076454;28;19928;-61
2023/07/06 14:17:13;;;;;;;;;;;23.20;63.50;;;;;;5077059;28;19928;-60
2023/07/06 14:19:41;;;;;;;;;;;23.40;63.20;;;;;;5082584;28;19954;-61
2023/07/06 14:22:28;;;;;;;;;;;23.60;62.60;;;;;;5075869;28;20006;-59
2023/07/06 14:24:56;;;;;;;;;;;23.90;62.40;;;;;;5075556;28;20347;-62
2023/07/06 14:27:25;;;;;;;;;;;24.10;62.70;;;;;;5088108;28;19928;-61
2023/07/06 14:29:52;;;;;;;;;;;24.20;62.10;;;;;;5081198;28;19928;-61
2023/07/06 14:32:19;;;;;;;;;;;24.40;61.60;;;;;;5073327;28;19973;-59
2023/07/06 14:34:46;;;;;;;;;;;24.50;61.90;;;;;;5078329;28;20194;-59